Wakefield, MI (49968)

5:35 AM CST on January 22, 2017 (GMT -0600)
Sunday Lake | | Change Station
Active Advisory: Dense Fog Advisory

Elev 1600 ft 46.48 °N, 89.95 °W | Updated 21 seconds ago

Fog
Fog
33.6 °F
Feels Like 34 °F
N
0.0
Wind Variable Wind from SE
Gusts 0.0 mph

Today
High -- | Low -- °F
--% Chance of Precip.
Yesterday
High -- | Low -- °F
Precip. -- in
Pressure 29.60 in
Visibility 0.2 miles
Clouds Overcast 200 ft
Windchill 34 °F
Dew Point 33 °F
Humidity 98%
Rainfall 0.00 in
Snow Depth Not available.
7:33 AM 4:49 PM
Waning Crescent, 27% visible
METAR KIWD 221056Z AUTO 29004KT 1/4SM FG OVC002 01/01 A2956 RMK AO2 SLP021 T00110006 FZRANO RVRNO
Pressure 29.60 in
Visibility 0.2 miles
Clouds Overcast 200 ft
Windchill 34 °F
Dew Point 33 °F
Humidity 98%
Rainfall 0.00 in
Snow Depth Not available.
7:33 AM 4:49 PM
Waning Crescent, 27% visible
METAR KIWD 221056Z AUTO 29004KT 1/4SM FG OVC002 01/01 A2956 RMK AO2 SLP021 T00110006 FZRANO RVRNO

Get Your Daily Forecast Email!

Thanks for signing up!

Be on the lookout for a verification email in your inbox.

You'll start receiving the daily forecast at 8 AM.

×

10-Day Weather Forecast

Almanac

Astronomy

Jan. 22, 2017 Rise Set
Actual Time
Civil Twilight
Nautical Twilight
Astronomical Twilight
Moon
Length of Visible Light
Length of Day
Tomorrow will be .
, % of the Moon is Illuminated

Today's Extremes

State Highs State Lows

Community

WunderPhotos

Upload Photos

1,962,540 photos uploaded!

WunderBlog® & News

Nearby

Air Quality

  Air Quality AQ Index Pollutant
Not available.

Snow Depth

Station Depth Elevation

Earthquake Activity

City Distance Mag. Time & Date
Minimum magnitude displayed is 2.5.

Coastal Water Temperatures

Place Temperature

Stations

Nearby Weather Stations

Station Location Temp. Windchill Dew Point Humidity Wind Precip. Elev Updated Type
                   

Watches & Warnings

Dense Fog Advisory
Issued: 3:01 AM CST Jan. 22, 2017 – National Weather Service

... Dense fog advisory remains in effect until 1 PM EST /noon CST/
this afternoon...

* areas of dense fog will persist this morning with visibility
   less than one-quarter mile at times.

Impacts:

* travel will be hazardous due to low visibility. Use your low
   beam headlights when driving this morning.

* The fog freezing on untreated surfaces may result in black
   ice and slippery travel.

Precautionary/preparedness actions:

* a dense fog advisory means visibilities will frequently be
   reduced to less than one quarter mile.

* Prepare, plan, and stay informed. Visit www.Weather.Gov/MQT



Jlb